Time;durP1;ratioP1;P1;durP2;ratioP2;P2;SDS_P1;SDS_P2;PMS_P1;PMS_P2;Temp;Humidity;BMP_temperature;BMP_pressure;BME280_temperature;BME280_humidity;BME280_pressure;Samples;Min_cycle;Max_cycle;Signal;HPM_P1;HPM_P2
2023/05/05 00:01:05;;;;;;;7.15;3.80;;;11.50;99.90;;;;;;5050249;28;20092;-73
2023/05/05 00:03:34;;;;;;;8.27;4.05;;;11.60;99.90;;;;;;5054439;28;20143;-74
2023/05/05 00:05:59;;;;;;;5.13;3.72;;;11.60;99.90;;;;;;5048405;28;20041;-74
2023/05/05 00:08:26;;;;;;;9.23;3.90;;;11.60;99.90;;;;;;5057162;28;20051;-74
2023/05/05 00:10:56;;;;;;;7.65;3.88;;;11.60;99.90;;;;;;5065377;28;20139;-73
2023/05/05 00:13:23;;;;;;;6.63;4.25;;;11.60;99.90;;;;;;5041880;28;20044;-74
2023/05/05 00:15:51;;;;;;;6.63;3.88;;;11.60;99.90;;;;;;5056406;28;20051;-75
2023/05/05 00:18:20;;;;;;;6.75;3.92;;;11.60;99.90;;;;;;5063336;28;20084;-73
2023/05/05 00:20:46;;;;;;;5.63;3.65;;;11.60;99.90;;;;;;5057992;28;20242;-74
2023/05/05 00:23:14;;;;;;;6.15;3.65;;;11.60;99.90;;;;;;5044306;28;20398;-75
2023/05/05 00:25:40;;;;;;;8.98;4.50;;;11.60;99.90;;;;;;5042840;28;20082;-75
2023/05/05 00:28:05;;;;;;;7.10;4.07;;;11.60;99.90;;;;;;5040324;28;20127;-73
2023/05/05 00:30:33;;;;;;;9.52;4.85;;;11.60;99.90;;;;;;5054580;28;20136;-74
2023/05/05 00:33:00;;;;;;;5.25;3.85;;;11.60;99.90;;;;;;5053493;28;20053;-74
2023/05/05 00:35:26;;;;;;;6.15;4.20;;;11.60;99.90;;;;;;5028676;28;20044;-76
2023/05/05 00:37:52;;;;;;;7.00;3.92;;;11.60;99.90;;;;;;5042285;28;20372;-74
2023/05/05 00:40:24;;;;;;;7.30;4.72;;;11.60;99.90;;;;;;5028514;28;20055;-73
2023/05/05 00:42:50;;;;;;;7.50;3.72;;;11.50;99.90;;;;;;5055449;28;20204;-73
2023/05/05 00:45:19;;;;;;;6.15;3.85;;;11.50;99.90;;;;;;5055265;28;20044;-74
2023/05/05 00:47:52;;;;;;;6.78;4.07;;;11.40;99.90;;;;;;5045229;28;20048;-74
2023/05/05 00:50:36;;;;;;;8.27;4.00;;;11.40;99.90;;;;;;5065456;28;20048;-74
2023/05/05 00:53:06;;;;;;;6.75;4.03;;;11.40;99.90;;;;;;5054048;28;20904;-73
2023/05/05 00:55:33;;;;;;;6.13;3.88;;;11.40;99.90;;;;;;5055764;28;20052;-74
2023/05/05 00:58:00;;;;;;;5.93;4.13;;;11.40;99.90;;;;;;5059998;28;20131;-76
2023/05/05 01:00:27;;;;;;;6.07;4.10;;;11.30;99.90;;;;;;5055119;28;20429;-75
2023/05/05 01:02:52;;;;;;;7.88;4.20;;;11.30;99.90;;;;;;5055575;28;20442;-74
2023/05/05 01:05:25;;;;;;;6.80;4.28;;;11.30;99.90;;;;;;5052535;28;20052;-74
2023/05/05 01:08:08;;;;;;;6.68;4.15;;;11.20;99.90;;;;;;5073021;28;20059;-74
2023/05/05 01:10:43;;;;;;;5.93;4.10;;;11.20;99.90;;;;;;5058614;28;20068;-74
2023/05/05 01:13:36;;;;;;;7.05;4.53;;;11.50;99.90;;;;;;5054801;28;20040;-77
2023/05/05 01:16:18;;;;;;;7.50;4.40;;;11.20;99.90;;;;;;5055096;28;20043;-74
2023/05/05 01:18:57;;;;;;;7.38;4.80;;;11.10;99.90;;;;;;5045677;28;20044;-75
2023/05/05 01:21:55;;;;;;;6.43;4.10;;;11.10;99.90;;;;;;5054316;28;20335;-74
2023/05/05 01:24:42;;;;;;;8.48;4.72;;;11.10;99.90;;;;;;5027998;28;20104;-74
2023/05/05 01:27:10;;;;;;;8.93;4.57;;;11.00;99.90;;;;;;5044547;28;20094;-73
2023/05/05 01:29:40;;;;;;;7.13;4.40;;;11.00;99.90;;;;;;5060347;28;20462;-74
2023/05/05 01:32:10;;;;;;;7.72;4.80;;;11.00;99.90;;;;;;5064586;28;20080;-76
2023/05/05 01:35:00;;;;;;;9.45;4.18;;;11.00;99.90;;;;;;5031384;28;20047;-74
2023/05/05 01:37:51;;;;;;;9.45;4.47;;;11.00;99.90;;;;;;5061098;28;20479;-75
2023/05/05 01:40:24;;;;;;;9.55;5.03;;;11.00;99.90;;;;;;5027315;28;20052;-74
2023/05/05 01:42:50;;;;;;;9.00;4.80;;;11.00;99.90;;;;;;5048106;28;20094;-75
2023/05/05 01:45:23;;;;;;;7.50;4.65;;;11.00;99.90;;;;;;5053706;28;20076;-75
2023/05/05 01:47:52;;;;;;;7.60;4.60;;;11.00;99.90;;;;;;5060396;28;20094;-73
2023/05/05 01:50:18;;;;;;;7.78;4.68;;;10.90;99.90;;;;;;5060301;28;20561;-73
2023/05/05 01:52:45;;;;;;;8.02;5.07;;;10.90;99.90;;;;;;5048555;28;20063;-74
2023/05/05 01:55:13;;;;;;;6.13;4.60;;;10.90;99.90;;;;;;5064123;28;20071;-73
2023/05/05 01:57:41;;;;;;;8.32;5.05;;;10.90;99.90;;;;;;5045360;28;20359;-75
2023/05/05 02:00:08;;;;;;;10.60;5.35;;;10.80;99.90;;;;;;5045998;28;20044;-75
2023/05/05 02:02:36;;;;;;;7.53;4.82;;;10.80;99.90;;;;;;5039268;28;20044;-75
2023/05/05 02:05:04;;;;;;;10.85;5.47;;;10.80;99.90;;;;;;5058258;28;20045;-74
2023/05/05 02:07:33;;;;;;;7.70;4.70;;;10.80;99.90;;;;;;5052156;28;20061;-76
2023/05/05 02:10:01;;;;;;;7.35;4.80;;;10.80;99.90;;;;;;5048151;28;20090;-75
2023/05/05 02:12:31;;;;;;;9.55;5.18;;;10.80;99.90;;;;;;5055210;28;20056;-74
2023/05/05 02:15:00;;;;;;;7.70;5.05;;;10.80;99.90;;;;;;5054037;28;20103;-74
2023/05/05 02:17:28;;;;;;;7.68;5.00;;;10.80;99.90;;;;;;5042069;28;20131;-74
2023/05/05 02:19:55;;;;;;;8.77;5.32;;;10.80;99.90;;;;;;5048336;28;20370;-74
2023/05/05 02:22:21;;;;;;;9.13;4.93;;;10.90;99.90;;;;;;5057752;28;20095;-77
2023/05/05 02:24:54;;;;;;;7.97;5.13;;;10.90;99.90;;;;;;5052329;28;20474;-73
2023/05/05 02:27:23;;;;;;;7.95;5.22;;;10.90;99.90;;;;;;5051186;28;20044;-73
2023/05/05 02:29:57;;;;;;;8.10;4.75;;;10.90;99.90;;;;;;5041487;28;20048;-74
2023/05/05 02:32:35;;;;;;;8.43;5.15;;;10.90;99.90;;;;;;5059504;28;20060;-74
2023/05/05 02:35:08;;;;;;;7.90;5.18;;;10.90;99.90;;;;;;5048143;28;20056;-76
2023/05/05 02:37:35;;;;;;;9.82;5.32;;;10.90;99.90;;;;;;5052405;28;20502;-75
2023/05/05 02:40:07;;;;;;;8.55;5.32;;;10.90;99.90;;;;;;5022572;28;20048;-75
2023/05/05 02:42:40;;;;;;;7.35;4.80;;;10.90;99.90;;;;;;5032703;28;20052;-76
2023/05/05 02:45:18;;;;;;;11.25;5.63;;;9.70;99.90;;;;;;5054112;28;20521;-73
2023/05/05 02:47:45;;;;;;;9.23;5.75;;;11.00;99.90;;;;;;5060842;28;20047;-74
2023/05/05 02:50:11;;;;;;;8.63;5.10;;;11.00;99.90;;;;;;5038184;28;20044;-74
2023/05/05 02:52:37;;;;;;;8.32;5.45;;;11.00;99.90;;;;;;5059668;28;20048;-74
2023/05/05 02:55:10;;;;;;;9.73;6.05;;;10.90;99.90;;;;;;5032754;28;20127;-75
2023/05/05 02:57:50;;;;;;;8.07;6.00;;;11.00;99.90;;;;;;5045876;28;20538;-74
2023/05/05 03:00:27;;;;;;;11.20;6.00;;;10.90;99.90;;;;;;5062486;28;20052;-74
2023/05/05 03:03:05;;;;;;;7.53;5.43;;;10.90;99.90;;;;;;5055842;28;20047;-75
2023/05/05 03:05:56;;;;;;;9.45;6.35;;;10.90;99.90;;;;;;5056836;28;20055;-74
2023/05/05 03:09:02;;;;;;;11.90;6.20;;;10.90;99.90;;;;;;5041234;28;20585;-75
2023/05/05 03:11:38;;;;;;;10.57;6.80;;;10.90;99.90;;;;;;5054064;28;20674;-75
2023/05/05 03:14:13;;;;;;;9.35;6.68;;;10.90;99.90;;;;;;5049971;28;20076;-76
2023/05/05 03:16:42;;;;;;;9.57;6.22;;;10.90;99.90;;;;;;5043662;28;20047;-76
2023/05/05 03:19:17;;;;;;;10.02;6.45;;;10.90;99.90;;;;;;5044746;28;20055;-74
2023/05/05 03:21:44;;;;;;;8.82;6.45;;;10.90;99.90;;;;;;5060055;28;20059;-76
2023/05/05 03:24:14;;;;;;;10.80;6.45;;;10.90;99.90;;;;;;5058795;28;20063;-74
2023/05/05 03:26:40;;;;;;;9.77;6.85;;;10.90;99.90;;;;;;5065504;28;20048;-76
2023/05/05 03:29:13;;;;;;;12.05;7.15;;;10.90;99.90;;;;;;5049366;28;20051;-75
2023/05/05 03:31:39;;;;;;;12.07;6.55;;;11.00;99.90;;;;;;5055207;28;20072;-74
2023/05/05 03:34:06;;;;;;;11.10;7.10;;;11.00;99.90;;;;;;5058916;28;20143;-76
2023/05/05 03:36:34;;;;;;;9.90;7.00;;;10.90;99.90;;;;;;5048265;28;20052;-76
2023/05/05 03:39:00;;;;;;;12.05;6.78;;;10.90;99.90;;;;;;5057784;28;20068;-75
2023/05/05 03:41:33;;;;;;;10.43;6.60;;;10.90;99.90;;;;;;5057824;28;20613;-75
2023/05/05 03:44:02;;;;;;;9.15;7.07;;;10.80;99.90;;;;;;5055182;28;20112;-75
2023/05/05 03:46:34;;;;;;;8.02;6.50;;;10.80;99.90;;;;;;5045048;28;20067;-76
2023/05/05 03:49:00;;;;;;;10.60;7.35;;;10.80;99.90;;;;;;5044086;28;20052;-75
2023/05/05 03:51:26;;;;;;;10.23;7.20;;;10.80;99.90;;;;;;5041959;28;20495;-75
2023/05/05 03:53:52;;;;;;;9.25;6.90;;;10.80;99.90;;;;;;5054880;28;20048;-74
2023/05/05 03:56:18;;;;;;;10.15;7.13;;;10.80;99.90;;;;;;5050612;28;20045;-75
2023/05/05 03:58:44;;;;;;;9.70;7.07;;;10.70;99.90;;;;;;5063354;28;20062;-75
2023/05/05 04:01:10;;;;;;;9.18;6.88;;;10.70;99.90;;;;;;5053473;28;20052;-75
2023/05/05 04:03:36;;;;;;;11.35;7.63;;;10.70;99.90;;;;;;5044108;28;20048;-74
2023/05/05 04:06:02;;;;;;;10.25;7.47;;;10.70;99.90;;;;;;5029412;28;20048;-75
2023/05/05 04:08:28;;;;;;;12.45;7.40;;;10.70;99.90;;;;;;5044914;28;20813;-75
2023/05/05 04:10:56;;;;;;;11.65;7.25;;;10.60;99.90;;;;;;5047298;28;20059;-75
2023/05/05 04:13:22;;;;;;;10.15;6.95;;;10.60;99.90;;;;;;5064221;28;20054;-75
2023/05/05 04:15:48;;;;;;;10.48;8.00;;;10.50;99.90;;;;;;5043182;28;20112;-75
2023/05/05 04:18:14;;;;;;;10.32;8.13;;;10.50;99.90;;;;;;5032256;28;20053;-75
2023/05/05 04:20:40;;;;;;;10.60;7.45;;;10.50;99.90;;;;;;5045861;28;20055;-76
2023/05/05 04:23:11;;;;;;;9.88;7.93;;;10.40;99.90;;;;;;5037166;28;20040;-75
2023/05/05 04:25:37;;;;;;;12.13;7.90;;;10.40;99.90;;;;;;5053653;28;20048;-74
2023/05/05 04:28:04;;;;;;;12.75;7.97;;;10.40;99.90;;;;;;5059199;28;21687;-76
2023/05/05 04:30:30;;;;;;;12.73;7.75;;;10.30;99.90;;;;;;5073489;28;20556;-75
2023/05/05 04:32:56;;;;;;;11.65;7.60;;;10.30;99.90;;;;;;5063802;28;20131;-76
2023/05/05 04:35:22;;;;;;;13.55;8.25;;;10.30;99.90;;;;;;5058583;28;20121;-74
2023/05/05 04:37:48;;;;;;;11.10;8.23;;;10.30;99.90;;;;;;5057012;28;20047;-74
2023/05/05 04:40:15;;;;;;;11.23;8.23;;;10.30;99.90;;;;;;5055577;28;20047;-75
2023/05/05 04:42:47;;;;;;;11.30;8.10;;;10.30;99.90;;;;;;5053224;28;20132;-73
2023/05/05 04:45:14;;;;;;;10.02;7.97;;;10.20;99.90;;;;;;5057093;28;20048;-75
2023/05/05 04:47:40;;;;;;;11.15;7.25;;;10.20;99.90;;;;;;5045471;28;20056;-74
2023/05/05 04:50:07;;;;;;;10.82;7.75;;;10.20;99.90;;;;;;5044631;28;20166;-74
2023/05/05 04:52:33;;;;;;;13.77;8.52;;;10.20;99.90;;;;;;5056402;28;20040;-73
2023/05/05 04:55:00;;;;;;;12.32;8.40;;;10.10;99.90;;;;;;5050142;28;20113;-75
2023/05/05 04:57:31;;;;;;;12.98;8.80;;;10.10;99.90;;;;;;5045851;28;20556;-73
2023/05/05 04:59:58;;;;;;;11.95;8.95;;;10.10;99.90;;;;;;5049547;28;20040;-73
2023/05/05 05:02:25;;;;;;;11.32;8.98;;;10.10;99.90;;;;;;5042713;28;20111;-74
2023/05/05 05:04:52;;;;;;;13.25;9.15;;;10.10;99.90;;;;;;5040867;28;20082;-75
2023/05/05 05:07:24;;;;;;;13.82;9.05;;;10.10;99.90;;;;;;5040522;28;20055;-74
2023/05/05 05:09:51;;;;;;;12.35;8.82;;;10.10;99.90;;;;;;5046567;28;20480;-74
2023/05/05 05:12:16;;;;;;;10.85;8.50;;;9.80;99.90;;;;;;5032194;28;20052;-73
2023/05/05 05:14:42;;;;;;;12.40;7.93;;;10.10;99.90;;;;;;5041491;28;20044;-74
2023/05/05 05:17:15;;;;;;;14.07;9.40;;;10.10;99.90;;;;;;5030920;28;20048;-73
2023/05/05 05:19:47;;;;;;;10.02;8.05;;;10.10;99.90;;;;;;5042044;28;20055;-73
2023/05/05 05:22:12;;;;;;;13.50;8.68;;;10.10;99.90;;;;;;5027930;28;20040;-73
2023/05/05 05:24:40;;;;;;;15.10;9.27;;;10.20;99.90;;;;;;5051761;28;20048;-74
2023/05/05 05:27:08;;;;;;;12.65;8.80;;;10.20;99.90;;;;;;5060631;28;21680;-75
2023/05/05 05:29:39;;;;;;;12.35;8.90;;;10.30;99.90;;;;;;5048086;28;20123;-75
2023/05/05 05:32:14;;;;;;;11.52;8.48;;;10.40;99.90;;;;;;5043920;28;20051;-72
2023/05/05 05:34:40;;;;;;;13.73;8.93;;;10.50;99.90;;;;;;5051673;28;20052;-74
2023/05/05 05:37:06;;;;;;;12.63;9.75;;;10.50;99.90;;;;;;5050711;28;20050;-74
2023/05/05 05:39:53;;;;;;;13.32;9.95;;;10.60;99.90;;;;;;5003635;28;20052;-73
2023/05/05 05:42:19;;;;;;;14.60;10.43;;;10.70;99.90;;;;;;5051217;28;20056;-75
2023/05/05 05:44:45;;;;;;;13.18;9.82;;;10.80;99.90;;;;;;5038475;28;20040;-74
2023/05/05 05:47:11;;;;;;;14.43;9.68;;;10.50;99.90;;;;;;5041499;28;20550;-75
2023/05/05 05:49:41;;;;;;;17.20;9.32;;;11.00;99.90;;;;;;5051939;28;20580;-76
2023/05/05 05:52:10;;;;;;;11.73;10.02;;;11.00;99.90;;;;;;5035843;28;20063;-74
2023/05/05 05:54:36;;;;;;;14.75;9.15;;;11.10;99.90;;;;;;5040246;28;20049;-75
2023/05/05 05:57:03;;;;;;;15.25;9.70;;;11.20;99.90;;;;;;5053510;28;20048;-74
2023/05/05 05:59:36;;;;;;;12.80;9.45;;;11.30;99.90;;;;;;5040294;28;20493;-75
2023/05/05 06:02:03;;;;;;;12.90;9.70;;;11.30;99.90;;;;;;5042406;28;20067;-74
2023/05/05 06:04:30;;;;;;;13.38;9.10;;;11.40;99.90;;;;;;5019740;28;20050;-75
2023/05/05 06:06:57;;;;;;;12.23;8.75;;;11.50;99.90;;;;;;5059048;28;20052;-76
2023/05/05 06:09:24;;;;;;;11.60;9.85;;;11.60;99.90;;;;;;5034676;28;20058;-74
2023/05/05 06:11:50;;;;;;;14.60;9.65;;;11.70;99.90;;;;;;5050391;28;20487;-74
2023/05/05 06:14:16;;;;;;;12.45;9.50;;;11.80;99.90;;;;;;5019816;28;20079;-73
2023/05/05 06:16:43;;;;;;;14.25;10.95;;;11.90;99.90;;;;;;5042678;28;20048;-73
2023/05/05 06:19:09;;;;;;;15.35;10.68;;;12.00;99.90;;;;;;5032606;28;20048;-73
2023/05/05 06:21:38;;;;;;;13.75;10.55;;;12.10;99.90;;;;;;5026969;28;20040;-74
2023/05/05 06:24:04;;;;;;;14.57;11.15;;;12.20;99.90;;;;;;5045066;28;20059;-74
2023/05/05 06:26:30;;;;;;;15.38;11.40;;;12.40;99.90;;;;;;5053087;28;20118;-74
2023/05/05 06:28:56;;;;;;;12.38;10.50;;;12.60;99.90;;;;;;5054837;28;20051;-75
2023/05/05 06:31:22;;;;;;;14.50;10.60;;;12.70;99.90;;;;;;5031797;28;20048;-75
2023/05/05 06:33:49;;;;;;;16.58;11.43;;;12.90;99.90;;;;;;5040062;28;20052;-76
2023/05/05 06:36:16;;;;;;;15.80;11.32;;;13.20;99.90;;;;;;5049932;28;20040;-76
2023/05/05 06:38:44;;;;;;;16.08;12.07;;;13.50;99.90;;;;;;5038985;28;20048;-76
2023/05/05 06:41:10;;;;;;;13.13;9.93;;;13.60;99.90;;;;;;5039015;28;20041;-75
2023/05/05 06:43:36;;;;;;;16.85;11.52;;;13.70;99.90;;;;;;5047956;28;20048;-76
2023/05/05 06:46:02;;;;;;;13.55;10.75;;;13.70;99.90;;;;;;5049040;28;20045;-76
2023/05/05 06:48:28;;;;;;;15.65;11.65;;;13.80;99.90;;;;;;5033284;28;20051;-75
2023/05/05 06:50:55;;;;;;;17.00;12.30;;;13.80;99.90;;;;;;5052944;28;20250;-75
2023/05/05 06:53:21;;;;;;;18.35;12.10;;;13.90;99.90;;;;;;5053744;28;20071;-73
2023/05/05 06:55:47;;;;;;;15.57;11.93;;;14.00;99.90;;;;;;5060419;28;20671;-73
2023/05/05 06:58:13;;;;;;;18.85;11.85;;;14.10;99.90;;;;;;5040326;28;20504;-74
2023/05/05 07:00:39;;;;;;;16.95;12.13;;;13.90;99.90;;;;;;5055441;28;20162;-73
2023/05/05 07:03:05;;;;;;;19.05;13.98;;;14.30;99.90;;;;;;5044690;28;20045;-75
2023/05/05 07:05:33;;;;;;;21.60;16.75;;;14.40;99.90;;;;;;5035548;28;20055;-75
2023/05/05 07:07:59;;;;;;;24.63;17.90;;;14.50;99.90;;;;;;5053384;28;21013;-72
2023/05/05 07:10:26;;;;;;;26.75;18.00;;;14.60;99.90;;;;;;5053901;28;20127;-73
2023/05/05 07:12:53;;;;;;;24.63;17.02;;;14.70;99.90;;;;;;5040397;28;20076;-73
2023/05/05 07:15:20;;;;;;;28.52;18.73;;;14.80;99.90;;;;;;5051775;28;20201;-76
2023/05/05 07:17:46;;;;;;;24.33;17.77;;;14.80;99.90;;;;;;5050890;28;20049;-73
2023/05/05 07:20:12;;;;;;;27.38;17.83;;;14.90;99.90;;;;;;5051601;28;20059;-73
2023/05/05 07:22:38;;;;;;;29.77;18.75;;;14.90;99.90;;;;;;5051141;28;20087;-75
2023/05/05 07:25:08;;;;;;;26.98;19.00;;;14.90;99.90;;;;;;5051432;28;20384;-76
2023/05/05 07:27:36;;;;;;;29.92;19.48;;;15.00;99.90;;;;;;5052344;28;20075;-76
2023/05/05 07:30:02;;;;;;;30.77;20.80;;;15.10;99.90;;;;;;5054757;28;20056;-74
2023/05/05 07:32:30;;;;;;;29.30;21.02;;;15.10;99.90;;;;;;5052035;28;20929;-74
2023/05/05 07:34:56;;;;;;;29.45;21.50;;;15.10;99.90;;;;;;5052619;28;20048;-74
2023/05/05 07:37:22;;;;;;;30.40;22.95;;;15.10;99.90;;;;;;5045188;28;20036;-73
2023/05/05 07:39:48;;;;;;;28.38;22.13;;;15.10;99.90;;;;;;5036547;28;20540;-75
2023/05/05 07:42:15;;;;;;;33.33;22.95;;;15.10;99.90;;;;;;5026564;28;20059;-75
2023/05/05 07:44:41;;;;;;;32.13;22.98;;;15.20;99.90;;;;;;5050428;28;20036;-75
2023/05/05 07:47:07;;;;;;;30.42;21.73;;;15.20;99.90;;;;;;5037539;28;20523;-75
2023/05/05 07:49:32;;;;;;;34.58;23.33;;;15.30;99.90;;;;;;5051043;28;20056;-75
2023/05/05 07:51:59;;;;;;;30.65;22.52;;;15.40;99.90;;;;;;5039769;28;20478;-74
2023/05/05 07:54:26;;;;;;;29.73;21.30;;;15.50;99.90;;;;;;5045776;28;20056;-75
2023/05/05 07:56:51;;;;;;;34.67;22.00;;;15.60;99.90;;;;;;5038131;28;20101;-74
2023/05/05 07:59:17;;;;;;;33.30;22.52;;;15.80;99.90;;;;;;5032407;28;20075;-74
2023/05/05 08:01:43;;;;;;;31.13;21.98;;;15.90;99.90;;;;;;5052626;28;20524;-75
2023/05/05 08:04:09;;;;;;;30.38;21.20;;;15.90;99.90;;;;;;5026434;28;20048;-75
2023/05/05 08:06:35;;;;;;;33.78;23.08;;;16.50;99.90;;;;;;5045411;28;20079;-75
2023/05/05 08:09:04;;;;;;;32.70;22.02;;;16.10;99.90;;;;;;5052288;28;22449;-75
2023/05/05 08:11:31;;;;;;;32.00;21.60;;;16.30;99.90;;;;;;5036811;28;20048;-75
2023/05/05 08:13:57;;;;;;;28.70;19.23;;;16.40;99.90;;;;;;5037623;28;20064;-75
2023/05/05 08:16:23;;;;;;;25.13;17.45;;;16.70;99.90;;;;;;5036347;28;20036;-76
2023/05/05 08:18:48;;;;;;;24.88;15.75;;;17.00;99.90;;;;;;5038443;28;20041;-76
2023/05/05 08:21:14;;;;;;;24.80;16.48;;;17.10;99.90;;;;;;5053524;28;20138;-77
2023/05/05 08:23:40;;;;;;;24.05;15.25;;;17.30;99.90;;;;;;5039880;28;20040;-73
2023/05/05 08:26:07;;;;;;;25.42;15.50;;;17.20;99.90;;;;;;5024906;28;20129;-74
2023/05/05 08:28:35;;;;;;;22.40;16.00;;;17.30;99.90;;;;;;5061517;28;20052;-75
2023/05/05 08:31:05;;;;;;;23.85;16.33;;;17.90;99.90;;;;;;5046088;28;20087;-75
2023/05/05 08:33:32;;;;;;;24.65;16.48;;;17.80;99.90;;;;;;5039877;28;20567;-76
2023/05/05 08:35:58;;;;;;;24.00;16.15;;;18.00;99.90;;;;;;5043759;28;20481;-73
2023/05/05 08:38:24;;;;;;;23.80;15.95;;;18.20;99.90;;;;;;5048166;28;20095;-74
2023/05/05 08:40:57;;;;;;;21.02;15.35;;;18.40;99.90;;;;;;5051120;28;20132;-75
2023/05/05 08:43:23;;;;;;;23.75;14.77;;;18.40;99.90;;;;;;5041168;28;20051;-76
2023/05/05 08:45:50;;;;;;;24.42;16.35;;;18.30;99.90;;;;;;5022883;28;20052;-74
2023/05/05 08:48:21;;;;;;;24.95;15.20;;;18.30;99.90;;;;;;5032384;28;20048;-76
2023/05/05 08:50:53;;;;;;;21.42;16.00;;;18.60;99.90;;;;;;5045654;28;20112;-74
2023/05/05 08:53:46;;;;;;;22.13;14.95;;;18.90;99.90;;;;;;5071899;28;20755;-74
2023/05/05 08:56:13;;;;;;;23.95;15.88;;;19.10;99.90;;;;;;5045607;28;20055;-75
2023/05/05 08:58:40;;;;;;;20.65;14.05;;;19.20;99.90;;;;;;5047319;28;20473;-74
2023/05/05 09:01:06;;;;;;;19.35;14.00;;;19.40;99.90;;;;;;5037015;28;20054;-76
2023/05/05 09:03:35;;;;;;;20.98;13.98;;;19.40;99.90;;;;;;5046776;28;20066;-76
2023/05/05 09:06:02;;;;;;;17.08;12.45;;;19.60;99.90;;;;;;5036275;28;20044;-75
2023/05/05 09:08:29;;;;;;;16.42;12.68;;;19.60;99.90;;;;;;5049513;28;20052;-76
2023/05/05 09:10:56;;;;;;;16.25;11.35;;;19.90;99.90;;;;;;5027560;28;20044;-74
2023/05/05 09:13:23;;;;;;;16.17;11.68;;;20.10;99.90;;;;;;5050798;28;20094;-75
2023/05/05 09:15:49;;;;;;;17.70;12.63;;;20.20;99.90;;;;;;5051280;28;20045;-74
2023/05/05 09:18:15;;;;;;;17.75;12.70;;;20.10;99.90;;;;;;5028265;28;20064;-76
2023/05/05 09:20:41;;;;;;;16.13;11.27;;;20.00;99.90;;;;;;5059907;28;20063;-75
2023/05/05 09:23:12;;;;;;;16.25;11.48;;;20.00;99.90;;;;;;5054968;28;20040;-74
2023/05/05 09:25:40;;;;;;;17.70;11.50;;;20.10;99.90;;;;;;5061375;28;20986;-75
2023/05/05 09:28:18;;;;;;;16.75;11.07;;;20.20;99.90;;;;;;5055563;28;20491;-74
2023/05/05 09:30:47;;;;;;;16.60;11.95;;;20.50;99.90;;;;;;5037647;28;20044;-74
2023/05/05 09:33:13;;;;;;;16.55;11.25;;;20.50;99.90;;;;;;5031388;28;20036;-74
2023/05/05 09:35:55;;;;;;;15.57;10.10;;;20.80;99.90;;;;;;5047590;28;20048;-74
2023/05/05 09:38:23;;;;;;;13.07;8.82;;;21.10;99.90;;;;;;5038821;28;20086;-74
2023/05/05 09:40:54;;;;;;;12.57;8.32;;;21.20;99.90;;;;;;5041604;28;20044;-76
2023/05/05 09:43:23;;;;;;;12.10;8.10;;;21.00;99.90;;;;;;5033918;28;20064;-74
2023/05/05 09:45:49;;;;;;;12.18;9.10;;;21.20;99.90;;;;;;5043605;28;20484;-74
2023/05/05 09:48:26;;;;;;;11.68;9.07;;;20.40;99.90;;;;;;5048020;28;20041;-74
2023/05/05 09:50:53;;;;;;;15.27;8.93;;;20.10;99.90;;;;;;5035436;28;20156;-76
2023/05/05 09:53:19;;;;;;;12.50;9.38;;;19.80;99.90;;;;;;5038652;28;20802;-75
2023/05/05 09:55:58;;;;;;;13.23;9.07;;;19.70;99.90;;;;;;5056756;28;20085;-75
2023/05/05 09:58:29;;;;;;;13.80;8.95;;;19.50;99.90;;;;;;5053368;28;20564;-75
2023/05/05 10:00:57;;;;;;;15.85;10.27;;;19.30;99.90;;;;;;5058060;28;20058;-74
2023/05/05 10:03:24;;;;;;;12.68;8.90;;;19.40;99.90;;;;;;5060872;28;20108;-74
2023/05/05 10:05:50;;;;;;;11.15;8.23;;;19.60;99.90;;;;;;5045942;28;20067;-74
2023/05/05 10:08:21;;;;;;;12.68;8.32;;;19.80;99.90;;;;;;5054959;28;20060;-74
2023/05/05 10:10:59;;;;;;;10.40;8.25;;;19.90;99.90;;;;;;5053312;28;20056;-75
2023/05/05 10:13:25;;;;;;;11.55;8.45;;;20.00;99.90;;;;;;5058676;28;20083;-73
2023/05/05 10:15:55;;;;;;;10.75;7.88;;;19.90;99.90;;;;;;5055471;28;20044;-74
2023/05/05 10:18:23;;;;;;;11.50;7.57;;;20.00;99.90;;;;;;5059890;28;20440;-74
2023/05/05 10:20:58;;;;;;;11.90;7.38;;;20.10;99.90;;;;;;5056085;28;20052;-74
2023/05/05 10:23:40;;;;;;;14.23;7.90;;;20.20;99.90;;;;;;5050372;28;20945;-74
2023/05/05 10:26:06;;;;;;;11.65;7.78;;;20.10;99.90;;;;;;5044104;28;20052;-74
2023/05/05 10:28:44;;;;;;;12.57;7.45;;;20.00;99.90;;;;;;5059814;28;20043;-74
2023/05/05 10:31:38;;;;;;;10.57;8.13;;;19.90;99.90;;;;;;5040248;28;20044;-75
2023/05/05 10:34:11;;;;;;;8.77;5.80;;;19.70;99.90;;;;;;5062761;28;20044;-76
2023/05/05 10:36:41;;;;;;;10.70;5.57;;;19.40;99.90;;;;;;5063252;28;20078;-75
2023/05/05 10:39:08;;;;;;;7.38;4.93;;;19.20;99.90;;;;;;5061110;28;20655;-75
2023/05/05 10:41:34;;;;;;;6.90;4.93;;;19.10;99.90;;;;;;5036232;28;22063;-77
2023/05/05 10:44:02;;;;;;;6.65;4.70;;;18.90;99.90;;;;;;5037223;28;20044;-75
2023/05/05 10:46:29;;;;;;;7.40;4.22;;;19.40;99.90;;;;;;5034216;28;20047;-75
2023/05/05 10:49:25;;;;;;;7.80;4.57;;;18.90;99.90;;;;;;5053731;28;20055;-74
2023/05/05 10:52:20;;;;;;;6.25;3.78;;;18.80;99.90;;;;;;5060884;28;20049;-74
2023/05/05 10:55:14;;;;;;;7.18;4.22;;;18.80;99.90;;;;;;5056632;28;20478;-75
2023/05/05 10:57:42;;;;;;;10.93;5.03;;;18.70;99.90;;;;;;5052948;28;20124;-75
2023/05/05 11:00:39;;;;;;;10.05;4.90;;;18.60;99.90;;;;;;5053055;28;20148;-76
2023/05/05 11:03:18;;;;;;;7.22;4.70;;;18.40;99.90;;;;;;5051225;28;20152;-74
2023/05/05 11:06:07;;;;;;;5.93;4.47;;;18.30;99.90;;;;;;5056015;28;20134;-75
2023/05/05 11:08:43;;;;;;;6.25;3.70;;;18.30;99.90;;;;;;5057751;28;20067;-75
2023/05/05 11:11:10;;;;;;;7.43;3.28;;;18.20;99.90;;;;;;5044391;28;20056;-74
2023/05/05 11:13:39;;;;;;;5.95;2.63;;;18.10;99.90;;;;;;5054515;28;20089;-75
2023/05/05 11:16:46;;;;;;;5.38;2.53;;;18.00;99.90;;;;;;5056918;28;20119;-76
2023/05/05 11:19:41;;;;;;;5.88;2.53;;;17.80;99.90;;;;;;5049067;28;20052;-75
2023/05/05 11:22:07;;;;;;;5.13;2.33;;;17.80;99.90;;;;;;5056221;28;20052;-76
2023/05/05 11:24:38;;;;;;;5.05;2.58;;;17.80;99.90;;;;;;5059591;28;20044;-76
2023/05/05 11:27:06;;;;;;;4.03;1.85;;;17.70;99.90;;;;;;5060537;28;20040;-76
2023/05/05 11:30:05;;;;;;;6.68;2.72;;;17.60;99.90;;;;;;5059434;28;20047;-74
2023/05/05 11:32:32;;;;;;;3.80;1.88;;;17.50;99.90;;;;;;5062259;28;20063;-74
2023/05/05 11:35:00;;;;;;;5.43;1.77;;;17.40;99.90;;;;;;5045886;28;20063;-74
2023/05/05 11:37:27;;;;;;;5.82;2.05;;;16.40;99.90;;;;;;5063372;28;20051;-75
2023/05/05 11:40:13;;;;;;;4.25;1.77;;;17.30;99.90;;;;;;5044967;28;20057;-75
2023/05/05 11:42:40;;;;;;;4.15;1.98;;;17.20;99.90;;;;;;5057647;28;20040;-77
2023/05/05 11:45:22;;;;;;;5.05;2.22;;;17.00;99.90;;;;;;5030043;28;20048;-74
2023/05/05 11:47:48;;;;;;;5.22;2.00;;;17.00;99.90;;;;;;5062974;28;20125;-74
2023/05/05 11:50:17;;;;;;;7.10;1.90;;;16.90;99.90;;;;;;5061777;28;20052;-77
2023/05/05 11:52:44;;;;;;;3.60;2.00;;;16.90;99.90;;;;;;5060161;28;20319;-74
2023/05/05 11:55:19;;;;;;;4.50;2.08;;;16.90;99.90;;;;;;5061870;28;20153;-75
2023/05/05 11:57:45;;;;;;;3.90;1.98;;;16.90;99.90;;;;;;5049859;28;20059;-76
2023/05/05 12:00:13;;;;;;;5.25;2.47;;;16.80;99.90;;;;;;5058471;28;20056;-75
2023/05/05 12:02:39;;;;;;;6.07;2.22;;;16.80;99.90;;;;;;5064687;28;20056;-76
2023/05/05 12:05:05;;;;;;;6.57;2.88;;;16.70;99.90;;;;;;5054604;28;20513;-77
2023/05/05 12:07:32;;;;;;;5.47;2.90;;;16.70;99.90;;;;;;5055303;28;20090;-75
2023/05/05 12:09:58;;;;;;;6.50;2.72;;;16.80;99.90;;;;;;5035992;28;20055;-74
2023/05/05 12:12:38;;;;;;;7.30;3.70;;;16.80;99.90;;;;;;5061969;28;20106;-73
2023/05/05 12:15:06;;;;;;;6.85;3.33;;;16.80;99.90;;;;;;5069140;28;20131;-75
2023/05/05 12:17:41;;;;;;;6.30;3.38;;;16.70;99.90;;;;;;5069430;28;20087;-74
2023/05/05 12:20:08;;;;;;;6.03;3.45;;;16.70;99.90;;;;;;5047754;28;20048;-74
2023/05/05 12:22:34;;;;;;;5.45;3.25;;;16.60;99.90;;;;;;5055664;28;20040;-75
2023/05/05 12:25:06;;;;;;;6.43;3.67;;;16.60;99.90;;;;;;5060991;28;20056;-75
2023/05/05 12:27:38;;;;;;;5.93;3.60;;;16.50;99.90;;;;;;5068098;28;20106;-74
2023/05/05 12:30:12;;;;;;;6.45;3.00;;;16.50;99.90;;;;;;5054081;28;20053;-76
2023/05/05 12:32:38;;;;;;;6.25;3.53;;;16.50;99.90;;;;;;5051377;28;20445;-74
2023/05/05 12:35:06;;;;;;;5.70;3.20;;;16.40;99.90;;;;;;5051713;28;20048;-76
2023/05/05 12:37:32;;;;;;;5.75;2.95;;;16.40;99.90;;;;;;5066152;28;20048;-75
2023/05/05 12:39:58;;;;;;;4.57;2.33;;;16.30;99.90;;;;;;5054207;28;20483;-75
2023/05/05 12:42:23;;;;;;;4.15;2.80;;;16.20;99.90;;;;;;5064243;28;20380;-74
2023/05/05 12:44:51;;;;;;;5.22;2.30;;;16.10;99.90;;;;;;5038157;28;20051;-76
2023/05/05 12:47:31;;;;;;;9.32;3.28;;;16.10;99.90;;;;;;5070078;28;20060;-75
2023/05/05 12:49:58;;;;;;;5.75;2.80;;;16.00;99.90;;;;;;5072732;28;20048;-73
2023/05/05 12:52:43;;;;;;;5.55;2.67;;;15.90;99.90;;;;;;5034389;28;20480;-73